Time;durP1;ratioP1;P1;durP2;ratioP2;P2;SDS_P1;SDS_P2;PMS_P1;PMS_P2;Temp;Humidity;BMP_temperature;BMP_pressure;BME280_temperature;BME280_humidity;BME280_pressure;Samples;Min_cycle;Max_cycle;Signal;HPM_P1;HPM_P2
2022/11/07 00:01:22;;;;;;;0.00;0.00;;;10.20;99.90;;;;;;4998886;28;20046;-75
2022/11/07 00:03:53;;;;;;;0.00;0.00;;;9.80;99.90;;;;;;5015037;28;20056;-74
2022/11/07 00:06:21;;;;;;;0.00;0.00;;;9.20;99.90;;;;;;5015871;28;20053;-74
2022/11/07 00:08:50;;;;;;;0.00;0.00;;;9.70;99.90;;;;;;5014741;28;20069;-75
2022/11/07 00:11:17;;;;;;;0.00;0.00;;;9.20;99.90;;;;;;5016026;28;20046;-75
2022/11/07 00:13:44;;;;;;;0.00;0.00;;;9.30;99.90;;;;;;5016186;28;20381;-75
2022/11/07 00:16:12;;;;;;;0.00;0.00;;;9.20;99.90;;;;;;5014769;28;20049;-74
2022/11/07 00:18:39;;;;;;;0.00;0.00;;;9.20;99.90;;;;;;4998614;28;20050;-74
2022/11/07 00:21:08;;;;;;;0.00;0.00;;;9.20;99.90;;;;;;4998711;28;20050;-75
2022/11/07 00:23:39;;;;;;;0.00;0.00;;;9.20;99.90;;;;;;5014606;28;20042;-75
2022/11/07 00:26:12;;;;;;;0.00;0.00;;;9.20;99.90;;;;;;5015874;28;20487;-75
2022/11/07 00:28:42;;;;;;;0.00;0.00;;;9.20;99.90;;;;;;5014460;28;20056;-75
2022/11/07 00:31:12;;;;;;;0.00;0.00;;;10.00;99.90;;;;;;5015543;28;20485;-74
2022/11/07 00:33:41;;;;;;;0.00;0.00;;;11.00;99.90;;;;;;5015352;28;20056;-75
2022/11/07 00:36:15;;;;;;;0.03;0.03;;;9.20;99.90;;;;;;5014676;28;20053;-74
2022/11/07 00:38:43;;;;;;;0.00;0.00;;;9.20;99.90;;;;;;4982429;28;20046;-75
2022/11/07 00:41:11;;;;;;;0.00;0.00;;;9.30;99.90;;;;;;5015463;28;20057;-74
2022/11/07 00:43:39;;;;;;;0.00;0.00;;;9.30;99.90;;;;;;5014161;28;20041;-74
2022/11/07 00:46:08;;;;;;;0.00;0.00;;;9.40;99.90;;;;;;5015669;28;20458;-75
2022/11/07 00:48:36;;;;;;;0.00;0.00;;;11.10;99.90;;;;;;5014127;28;20369;-74
2022/11/07 00:51:08;;;;;;;0.00;0.00;;;10.70;99.90;;;;;;4998475;28;20049;-74
2022/11/07 00:53:36;;;;;;;0.00;0.00;;;9.50;99.90;;;;;;5005268;28;20068;-76
2022/11/07 00:56:06;;;;;;;0.00;0.00;;;9.50;99.90;;;;;;5033667;28;20041;-75
2022/11/07 00:58:34;;;;;;;0.00;0.00;;;9.60;99.90;;;;;;5034440;28;20052;-75
2022/11/07 01:01:10;;;;;;;0.00;0.00;;;9.60;99.90;;;;;;5034830;28;20049;-75
2022/11/07 01:06:29;;;;;;;0.00;0.00;;;10.90;99.90;;;;;;5035059;28;20064;-74
2022/11/07 01:08:58;;;;;;;0.00;0.00;;;9.80;99.90;;;;;;5032707;28;20042;-75
2022/11/07 01:11:27;;;;;;;0.00;0.00;;;11.30;99.90;;;;;;5033783;28;20050;-75
2022/11/07 01:13:59;;;;;;;0.00;0.00;;;10.80;99.90;;;;;;5034776;28;20050;-74
2022/11/07 01:16:28;;;;;;;0.00;0.00;;;10.00;99.90;;;;;;5032952;28;20041;-75
2022/11/07 01:18:56;;;;;;;0.00;0.00;;;10.10;99.90;;;;;;5034538;28;20045;-75
2022/11/07 01:21:24;;;;;;;0.00;0.00;;;10.90;99.90;;;;;;5033563;28;20053;-74
2022/11/07 01:23:51;;;;;;;0.00;0.00;;;10.50;99.90;;;;;;5033444;28;20057;-75
2022/11/07 01:26:19;;;;;;;0.00;0.00;;;9.40;99.90;;;;;;5034900;28;20052;-74
2022/11/07 01:28:47;;;;;;;0.00;0.00;;;10.20;99.90;;;;;;5032882;28;20037;-74
2022/11/07 01:31:16;;;;;;;0.00;0.00;;;10.20;99.90;;;;;;5034763;28;20484;-74
2022/11/07 01:33:44;;;;;;;0.00;0.00;;;10.10;99.90;;;;;;5034363;28;20038;-74
2022/11/07 01:36:14;;;;;;;0.00;0.00;;;10.20;99.90;;;;;;5032239;28;20052;-74
2022/11/07 01:38:45;;;;;;;0.00;0.00;;;11.10;99.90;;;;;;5034022;28;20053;-75
2022/11/07 01:41:23;;;;;;;0.00;0.00;;;10.20;99.90;;;;;;5034782;28;20042;-75
2022/11/07 01:43:55;;;;;;;0.00;0.00;;;10.20;99.90;;;;;;5033398;28;20042;-74
2022/11/07 01:46:33;;;;;;;0.00;0.00;;;10.80;99.90;;;;;;5034294;28;20057;-74
2022/11/07 01:49:06;;;;;;;0.00;0.00;;;10.10;99.90;;;;;;5033291;28;20050;-74
2022/11/07 01:51:41;;;;;;;0.00;0.00;;;10.10;99.90;;;;;;5034453;28;20053;-74
2022/11/07 01:54:10;;;;;;;0.00;0.00;;;10.70;99.90;;;;;;5024703;28;20069;-74
2022/11/07 01:56:41;;;;;;;0.00;0.00;;;10.10;99.90;;;;;;4996057;28;20049;-74
2022/11/07 01:59:11;;;;;;;0.00;0.00;;;10.10;99.90;;;;;;5014718;28;20049;-75
2022/11/07 02:01:39;;;;;;;0.00;0.00;;;10.10;99.90;;;;;;4997837;28;20053;-75
2022/11/07 02:04:07;;;;;;;;;;;10.30;99.90;;;;;;5013850;28;20042;-74
2022/11/07 02:06:46;;;;;;;0.00;0.00;;;10.10;99.90;;;;;;4997466;28;19922;-74
2022/11/07 02:09:14;;;;;;;0.00;0.00;;;10.20;99.90;;;;;;5015417;28;20041;-73
2022/11/07 02:11:42;;;;;;;0.00;0.00;;;10.20;99.90;;;;;;5018081;28;20038;-75
2022/11/07 02:14:17;;;;;;;0.00;0.00;;;10.80;99.90;;;;;;5017988;28;20050;-74
2022/11/07 02:16:45;;;;;;;0.00;0.00;;;10.80;99.90;;;;;;4999865;28;20046;-74
2022/11/07 02:19:29;;;;;;;0.00;0.00;;;11.20;99.90;;;;;;5017899;28;20045;-75
2022/11/07 02:22:18;;;;;;;0.00;0.00;;;10.20;99.90;;;;;;4999851;28;20492;-74
2022/11/07 02:24:50;;;;;;;0.00;0.00;;;10.20;99.90;;;;;;5018270;28;20042;-75
2022/11/07 02:27:20;;;;;;;0.00;0.00;;;10.30;99.90;;;;;;5018022;28;20050;-74
2022/11/07 02:29:53;;;;;;;0.00;0.00;;;10.20;99.90;;;;;;5016625;28;20046;-75
2022/11/07 02:32:21;;;;;;;0.00;0.00;;;10.30;99.90;;;;;;5000509;28;20506;-75
2022/11/07 02:35:00;;;;;;;0.00;0.00;;;10.40;99.90;;;;;;5001072;28;20054;-74
2022/11/07 02:37:31;;;;;;;0.00;0.00;;;10.30;99.90;;;;;;5016604;28;20045;-74
2022/11/07 02:40:01;;;;;;;0.00;0.00;;;10.30;99.90;;;;;;5000560;28;20048;-74
2022/11/07 02:42:42;;;;;;;0.00;0.00;;;10.30;99.90;;;;;;5016612;28;20046;-74
2022/11/07 02:45:18;;;;;;;0.00;0.00;;;10.40;99.90;;;;;;5018097;28;20053;-74
2022/11/07 02:47:46;;;;;;;0.00;0.00;;;10.40;99.90;;;;;;5000342;28;20053;-75
2022/11/07 02:50:15;;;;;;;0.00;0.00;;;10.30;99.90;;;;;;4999138;28;20081;-74
2022/11/07 02:52:42;;;;;;;1.13;0.38;;;10.60;99.90;;;;;;5017552;28;20061;-75
2022/11/07 02:55:12;;;;;;;0.00;0.00;;;11.50;99.90;;;;;;5017037;28;20069;-74
2022/11/07 02:57:40;;;;;;;0.00;0.00;;;10.40;99.90;;;;;;5017085;28;20050;-75
2022/11/07 03:00:10;;;;;;;0.00;0.00;;;10.40;99.90;;;;;;5017183;28;20038;-74
2022/11/07 03:02:39;;;;;;;0.00;0.00;;;10.40;99.90;;;;;;5016270;28;20038;-74
2022/11/07 03:05:07;;;;;;;0.00;0.00;;;10.70;99.90;;;;;;5017450;28;20046;-75
2022/11/07 03:07:35;;;;;;;;;;;10.50;99.90;;;;;;5017561;28;20050;-74
2022/11/07 03:10:02;;;;;;;0.00;0.00;;;10.40;99.90;;;;;;5015922;28;19921;-74
2022/11/07 03:12:30;;;;;;;0.00;0.00;;;10.60;99.90;;;;;;5017163;28;20046;-74
2022/11/07 03:14:57;;;;;;;0.00;0.00;;;11.00;99.90;;;;;;5017208;28;20364;-74
2022/11/07 03:17:25;;;;;;;0.00;0.00;;;10.60;99.90;;;;;;4998625;28;20042;-75
2022/11/07 03:19:52;;;;;;;0.00;0.00;;;10.60;99.90;;;;;;4999536;28;20472;-73
2022/11/07 03:22:19;;;;;;;0.00;0.00;;;10.60;99.90;;;;;;5015582;28;20280;-75
2022/11/07 03:24:47;;;;;;;0.00;0.00;;;10.60;99.90;;;;;;5017121;28;20287;-74
2022/11/07 03:27:14;;;;;;;0.00;0.00;;;11.30;99.90;;;;;;5016666;28;20041;-73
2022/11/07 03:29:42;;;;;;;0.00;0.00;;;10.70;99.90;;;;;;4998619;28;20614;-74
2022/11/07 03:32:10;;;;;;;0.38;0.38;;;10.70;99.90;;;;;;5016622;28;20058;-74
2022/11/07 03:34:37;;;;;;;0.00;0.00;;;10.70;99.90;;;;;;5016531;28;20037;-75
2022/11/07 03:37:05;;;;;;;0.00;0.00;;;10.80;99.90;;;;;;5015259;28;20053;-74
2022/11/07 03:39:32;;;;;;;0.00;0.00;;;10.80;99.90;;;;;;4999521;28;20052;-74
2022/11/07 03:42:00;;;;;;;0.00;0.00;;;10.70;99.90;;;;;;5015363;28;20042;-75
2022/11/07 03:44:27;;;;;;;0.00;0.00;;;10.70;99.90;;;;;;4999334;28;20045;-74
2022/11/07 03:46:55;;;;;;;0.00;0.00;;;10.80;99.90;;;;;;4999484;28;20041;-75
2022/11/07 03:49:22;;;;;;;0.00;0.00;;;10.80;99.90;;;;;;5015258;28;20283;-74
2022/11/07 03:51:50;;;;;;;0.00;0.00;;;10.80;99.90;;;;;;5016238;28;20069;-74
2022/11/07 03:54:17;;;;;;;0.00;0.00;;;10.70;99.90;;;;;;5016601;28;20042;-74
2022/11/07 03:56:44;;;;;;;0.00;0.00;;;10.80;99.90;;;;;;5015019;28;20046;-75
2022/11/07 03:59:12;;;;;;;0.00;0.00;;;10.70;99.90;;;;;;5016363;28;20287;-74
2022/11/07 04:01:39;;;;;;;0.00;0.00;;;10.80;99.90;;;;;;5015969;28;20057;-74
2022/11/07 04:04:07;;;;;;;0.00;0.00;;;10.80;99.90;;;;;;5014876;28;20042;-74
2022/11/07 04:06:35;;;;;;;0.00;0.00;;;10.80;99.90;;;;;;5016207;28;20445;-74
2022/11/07 04:09:02;;;;;;;0.20;0.20;;;11.20;99.90;;;;;;5015173;28;20046;-75
2022/11/07 04:17:17;;;;;;;0.00;0.00;;;10.90;99.90;;;;;;5014899;28;20054;-75
2022/11/07 04:19:50;;;;;;;0.00;0.00;;;11.00;99.90;;;;;;5015783;28;20048;-75
2022/11/07 04:22:18;;;;;;;0.00;0.00;;;11.00;99.90;;;;;;5014708;28;20082;-75
2022/11/07 04:24:45;;;;;;;0.00;0.00;;;11.00;99.90;;;;;;5015624;28;20046;-75
2022/11/07 04:32:59;;;;;;;0.47;0.47;;;11.00;99.90;;;;;;4997555;28;20381;-75
2022/11/07 04:35:29;;;;;;;0.00;0.00;;;11.10;99.90;;;;;;5015056;28;20369;-74
2022/11/07 04:37:57;;;;;;;0.00;0.00;;;11.00;99.90;;;;;;4998632;28;20465;-74
2022/11/07 04:40:26;;;;;;;0.00;0.00;;;11.00;99.90;;;;;;5015592;28;20041;-74
2022/11/07 04:42:54;;;;;;;0.00;0.00;;;11.00;99.90;;;;;;4997001;28;20046;-75
2022/11/07 04:45:21;;;;;;;0.00;0.00;;;11.00;99.90;;;;;;5015387;28;20042;-75
2022/11/07 04:47:49;;;;;;;0.00;0.00;;;11.00;99.90;;;;;;5015450;28;20049;-75
2022/11/07 04:50:18;;;;;;;0.00;0.00;;;11.00;99.90;;;;;;4997323;28;20054;-74
2022/11/07 04:52:46;;;;;;;0.00;0.00;;;11.10;99.90;;;;;;5015591;28;20085;-75
2022/11/07 04:55:22;;;;;;;0.00;0.00;;;11.10;99.90;;;;;;5030388;28;20182;-74
2022/11/07 04:57:50;;;;;;;0.00;0.00;;;11.10;99.90;;;;;;5035098;28;20046;-74
2022/11/07 05:00:18;;;;;;;0.00;0.00;;;11.20;99.90;;;;;;5034736;28;20056;-74
2022/11/07 05:02:47;;;;;;;0.10;0.10;;;11.20;99.90;;;;;;5032787;28;20050;-74
2022/11/07 05:05:14;;;;;;;;;;;11.20;99.90;;;;;;5035241;28;20045;-74
2022/11/07 05:07:43;;;;;;;0.00;0.00;;;11.10;99.90;;;;;;5034715;28;19921;-75
2022/11/07 05:10:16;;;;;;;;;;;11.20;99.90;;;;;;5034147;28;20367;-74
2022/11/07 05:12:43;;;;;;;0.00;0.00;;;11.20;99.90;;;;;;5034633;28;19928;-74
2022/11/07 05:15:11;;;;;;;0.00;0.00;;;11.30;99.90;;;;;;5034656;28;20052;-75
2022/11/07 05:17:38;;;;;;;0.00;0.00;;;11.30;99.90;;;;;;5035046;28;20050;-75
2022/11/07 05:20:07;;;;;;;0.00;0.00;;;11.40;99.90;;;;;;5034718;28;20056;-74
2022/11/07 05:23:17;;;;;;;;;;;11.40;99.90;;;;;;5033985;28;20044;-75
2022/11/07 05:25:24;;;;;;;0.00;0.00;;;11.40;99.90;;;;;;5031654;28;19962;-74
2022/11/07 05:27:55;;;;;;;0.00;0.00;;;11.40;99.90;;;;;;5034663;28;20041;-75
2022/11/07 05:30:22;;;;;;;0.00;0.00;;;11.40;99.90;;;;;;5032862;28;20388;-75
2022/11/07 05:32:50;;;;;;;0.00;0.00;;;11.40;99.90;;;;;;5034605;28;20048;-75
2022/11/07 05:35:17;;;;;;;0.00;0.00;;;11.70;99.90;;;;;;5033660;28;20046;-74
2022/11/07 05:37:45;;;;;;;0.00;0.00;;;11.50;99.90;;;;;;5034412;28;20057;-75
2022/11/07 05:40:12;;;;;;;0.00;0.00;;;11.50;99.90;;;;;;5034361;28;20291;-75
2022/11/07 05:42:40;;;;;;;0.10;0.10;;;11.50;99.90;;;;;;5033683;28;20056;-74
2022/11/07 05:45:07;;;;;;;0.00;0.00;;;11.50;99.90;;;;;;5038554;28;20073;-74
2022/11/07 05:47:35;;;;;;;0.00;0.00;;;11.50;99.90;;;;;;5038557;28;20048;-75
2022/11/07 05:50:03;;;;;;;17.37;3.93;;;11.50;99.90;;;;;;5037257;28;20045;-75
2022/11/07 05:52:31;;;;;;;0.00;0.00;;;11.50;99.90;;;;;;5038648;28;20610;-75
2022/11/07 05:54:58;;;;;;;0.00;0.00;;;11.50;99.90;;;;;;5021793;28;20053;-74
2022/11/07 05:57:29;;;;;;;0.00;0.00;;;11.40;99.90;;;;;;5017279;28;20049;-74
2022/11/07 05:59:56;;;;;;;0.00;0.00;;;11.40;99.90;;;;;;5018659;28;20287;-74
2022/11/07 06:02:24;;;;;;;0.00;0.00;;;11.50;99.90;;;;;;5017344;28;20377;-75
2022/11/07 06:04:51;;;;;;;0.20;0.20;;;11.30;99.90;;;;;;5018128;28;20050;-75
2022/11/07 06:07:21;;;;;;;0.00;0.00;;;11.20;99.90;;;;;;5018525;28;20057;-75
2022/11/07 06:09:48;;;;;;;0.00;0.00;;;11.30;99.90;;;;;;5017084;28;20057;-74
2022/11/07 06:12:16;;;;;;;0.00;0.00;;;11.30;99.90;;;;;;5018337;28;20050;-74
2022/11/07 06:14:43;;;;;;;0.47;0.47;;;11.30;99.90;;;;;;5017996;28;20306;-74
2022/11/07 06:17:10;;;;;;;0.37;0.37;;;11.30;99.90;;;;;;5016842;28;20524;-75
2022/11/07 06:19:38;;;;;;;0.00;0.00;;;10.90;99.90;;;;;;5017867;28;20294;-75
2022/11/07 06:22:06;;;;;;;0.00;0.00;;;11.30;99.90;;;;;;4999986;28;20045;-74
2022/11/07 06:24:33;;;;;;;0.00;0.00;;;11.30;99.90;;;;;;5017987;28;20056;-74
2022/11/07 06:27:00;;;;;;;0.00;0.00;;;11.40;99.90;;;;;;5017878;28;20306;-74
2022/11/07 06:29:28;;;;;;;0.20;0.20;;;11.20;99.90;;;;;;4999735;28;20765;-75
2022/11/07 06:31:55;;;;;;;0.00;0.00;;;11.20;99.90;;;;;;5017112;28;20287;-74
2022/11/07 06:37:17;;;;;;;0.00;0.00;;;11.10;99.90;;;;;;5016624;28;20046;-74
2022/11/07 06:39:45;;;;;;;0.00;0.00;;;11.10;99.90;;;;;;5017637;28;20477;-74
2022/11/07 06:42:12;;;;;;;0.00;0.00;;;11.10;99.90;;;;;;5016406;28;20053;-75
2022/11/07 06:44:40;;;;;;;0.00;0.00;;;11.10;99.90;;;;;;5017475;28;20361;-74
2022/11/07 06:47:07;;;;;;;0.00;0.00;;;11.00;99.90;;;;;;5018053;28;20037;-75
2022/11/07 06:49:35;;;;;;;0.00;0.00;;;11.00;99.90;;;;;;5016727;28;20287;-74
2022/11/07 06:52:03;;;;;;;0.00;0.00;;;11.00;99.90;;;;;;5017681;28;20050;-74
2022/11/07 06:54:31;;;;;;;0.00;0.00;;;11.00;99.90;;;;;;5021340;28;20056;-74
2022/11/07 06:56:58;;;;;;;0.00;0.00;;;11.00;99.90;;;;;;5035549;28;20049;-74
2022/11/07 06:59:25;;;;;;;0.00;0.00;;;11.00;99.90;;;;;;5037138;28;20045;-75
2022/11/07 07:01:55;;;;;;;0.00;0.00;;;11.00;99.90;;;;;;5035983;28;20456;-75
2022/11/07 07:04:23;;;;;;;0.00;0.00;;;11.00;99.90;;;;;;5035942;28;20049;-74
2022/11/07 07:06:50;;;;;;;0.00;0.00;;;11.10;99.90;;;;;;5036327;28;20364;-75
2022/11/07 07:09:18;;;;;;;0.00;0.00;;;11.80;99.90;;;;;;5035680;28;20049;-74
2022/11/07 07:11:47;;;;;;;0.00;0.00;;;11.20;99.90;;;;;;5035975;28;20452;-75
2022/11/07 07:14:14;;;;;;;0.00;0.00;;;11.10;99.90;;;;;;5037277;28;20060;-74
2022/11/07 07:16:41;;;;;;;0.00;0.00;;;11.10;99.90;;;;;;5035652;28;20060;-76
2022/11/07 07:19:11;;;;;;;0.00;0.00;;;11.20;99.90;;;;;;5035445;28;20060;-76
2022/11/07 07:21:39;;;;;;;0.70;0.70;;;11.20;99.90;;;;;;5036573;28;20129;-76
2022/11/07 07:24:06;;;;;;;1.90;1.65;;;11.30;99.90;;;;;;5053899;28;20041;-75
2022/11/07 07:26:34;;;;;;;0.00;0.00;;;11.40;99.90;;;;;;5056772;28;20040;-75
2022/11/07 07:29:01;;;;;;;0.00;0.00;;;11.50;99.90;;;;;;5054486;28;20380;-75
2022/11/07 07:31:40;;;;;;;0.00;0.00;;;11.80;99.90;;;;;;5056548;28;20274;-76
2022/11/07 07:34:25;;;;;;;0.00;0.00;;;11.60;99.90;;;;;;5038000;28;20056;-75
2022/11/07 07:36:53;;;;;;;0.00;0.00;;;11.70;99.90;;;;;;5055177;28;20053;-77
2022/11/07 07:39:22;;;;;;;0.00;0.00;;;11.80;99.90;;;;;;5056081;28;20468;-76
2022/11/07 07:41:50;;;;;;;0.00;0.00;;;11.80;99.90;;;;;;5056225;28;20045;-75
2022/11/07 07:44:20;;;;;;;0.00;0.00;;;11.90;99.90;;;;;;5055316;28;20372;-75
2022/11/07 07:46:50;;;;;;;0.00;0.00;;;11.90;99.90;;;;;;5038906;28;20052;-75
2022/11/07 07:49:19;;;;;;;0.00;0.00;;;11.90;99.90;;;;;;5037824;28;20380;-75
2022/11/07 07:51:47;;;;;;;0.00;0.00;;;12.00;99.90;;;;;;5055670;28;20045;-76
2022/11/07 07:54:15;;;;;;;0.10;0.10;;;12.00;99.90;;;;;;5054563;28;20053;-74
2022/11/07 07:56:42;;;;;;;0.00;0.00;;;12.10;99.90;;;;;;5053897;28;20053;-75
2022/11/07 07:59:09;;;;;;;0.00;0.00;;;12.50;99.90;;;;;;5054413;28;20068;-76
2022/11/07 08:01:37;;;;;;;0.10;0.10;;;12.20;99.90;;;;;;5055479;28;20281;-74
2022/11/07 08:04:05;;;;;;;0.00;0.00;;;12.20;99.90;;;;;;5053581;28;20040;-75
2022/11/07 08:06:36;;;;;;;0.00;0.00;;;12.60;99.90;;;;;;5054296;28;20041;-74
2022/11/07 08:09:04;;;;;;;0.00;0.00;;;12.30;99.90;;;;;;5053561;28;20481;-74
2022/11/07 08:11:34;;;;;;;0.00;0.00;;;13.00;99.90;;;;;;5055298;28;20068;-74
2022/11/07 08:14:01;;;;;;;0.00;0.00;;;12.40;99.90;;;;;;5055102;28;20060;-74
2022/11/07 08:16:29;;;;;;;3.10;0.88;;;12.50;99.90;;;;;;5054144;28;20041;-74
2022/11/07 08:18:59;;;;;;;0.00;0.00;;;12.50;99.90;;;;;;5055183;28;20456;-76
2022/11/07 08:21:26;;;;;;;0.00;0.00;;;12.50;99.90;;;;;;5054180;28;20049;-75
2022/11/07 08:23:55;;;;;;;0.00;0.00;;;12.60;99.90;;;;;;5054064;28;20045;-75
2022/11/07 08:26:22;;;;;;;0.10;0.10;;;12.60;99.90;;;;;;5054963;28;20040;-75
2022/11/07 08:28:53;;;;;;;0.00;0.00;;;12.60;99.90;;;;;;5053944;28;20040;-75
2022/11/07 08:31:21;;;;;;;0.00;0.00;;;12.70;99.90;;;;;;5054150;28;20049;-76
2022/11/07 08:33:49;;;;;;;0.00;0.00;;;13.60;99.90;;;;;;5054027;28;20059;-75
2022/11/07 08:36:16;;;;;;;0.00;0.00;;;12.80;99.90;;;;;;5053527;28;20053;-77
2022/11/07 08:38:44;;;;;;;0.65;0.65;;;12.80;99.90;;;;;;5054851;28;20051;-75
2022/11/07 08:41:11;;;;;;;0.00;0.00;;;13.40;99.90;;;;;;5054331;28;20053;-74
2022/11/07 08:43:39;;;;;;;0.00;0.00;;;12.80;99.90;;;;;;5051753;28;20605;-73
2022/11/07 08:46:06;;;;;;;0.00;0.00;;;12.90;99.90;;;;;;5049437;28;20278;-73
2022/11/07 08:48:34;;;;;;;0.00;0.00;;;13.00;99.90;;;;;;5046435;28;20387;-74
2022/11/07 08:51:02;;;;;;;3.20;1.17;;;13.00;99.90;;;;;;5033450;28;20045;-74
2022/11/07 08:53:30;;;;;;;;;;;13.00;99.90;;;;;;5033998;28;20049;-75
2022/11/07 08:56:03;;;;;;;0.00;0.00;;;13.10;99.90;;;;;;5033882;28;19928;-74
2022/11/07 08:58:31;;;;;;;0.00;0.00;;;13.10;99.90;;;;;;5035688;28;20045;-74
2022/11/07 09:00:59;;;;;;;0.00;0.00;;;13.20;99.90;;;;;;5034782;28;20169;-75
2022/11/07 09:03:27;;;;;;;0.00;0.00;;;14.30;99.90;;;;;;5034072;28;20376;-73
2022/11/07 09:06:14;;;;;;;0.00;0.00;;;13.20;99.90;;;;;;5034489;28;20404;-74
2022/11/07 09:08:41;;;;;;;24.27;3.38;;;13.30;99.90;;;;;;5034122;28;20049;-75
2022/11/07 09:11:09;;;;;;;31.58;3.25;;;13.30;99.90;;;;;;5035034;28;20053;-74
2022/11/07 09:13:37;;;;;;;24.15;3.45;;;13.40;99.90;;;;;;5035148;28;20060;-74
2022/11/07 09:16:05;;;;;;;21.80;2.95;;;13.40;99.90;;;;;;5032987;28;20041;-74
2022/11/07 09:18:33;;;;;;;26.45;3.47;;;13.50;99.90;;;;;;5034096;28;20061;-76
2022/11/07 09:21:01;;;;;;;24.55;3.40;;;13.50;99.90;;;;;;5033807;28;20057;-74
2022/11/07 09:23:29;;;;;;;24.98;3.80;;;13.60;99.90;;;;;;5050929;28;20056;-74
2022/11/07 09:26:00;;;;;;;37.42;4.32;;;13.80;99.90;;;;;;5054161;28;20037;-75
2022/11/07 09:28:28;;;;;;;23.17;3.42;;;13.80;99.90;;;;;;5054425;28;20037;-75
2022/11/07 09:30:57;;;;;;;26.33;3.38;;;13.80;99.90;;;;;;5052469;28;20049;-73
2022/11/07 09:33:25;;;;;;;31.88;3.90;;;13.90;99.90;;;;;;5054094;28;20041;-74
2022/11/07 09:35:53;;;;;;;31.58;4.00;;;13.90;99.90;;;;;;5053251;28;20057;-74
2022/11/07 09:38:21;;;;;;;;;;;14.00;99.90;;;;;;5037759;28;20380;-76
2022/11/07 09:41:09;;;;;;;27.02;3.33;;;14.00;99.90;;;;;;5054330;28;20347;-76
2022/11/07 09:43:54;;;;;;;26.80;3.20;;;14.10;99.90;;;;;;5036120;28;20045;-76
2022/11/07 09:46:27;;;;;;;21.60;3.03;;;14.20;99.90;;;;;;5053836;28;20045;-75
2022/11/07 09:49:11;;;;;;;28.55;3.83;;;14.20;99.90;;;;;;5036117;28;20049;-75
2022/11/07 09:51:44;;;;;;;27.58;4.03;;;14.30;99.90;;;;;;5053703;28;20045;-75
2022/11/07 09:54:20;;;;;;;21.52;3.22;;;14.40;99.90;;;;;;5043975;28;20369;-75
2022/11/07 09:56:47;;;;;;;21.83;3.53;;;14.40;99.90;;;;;;5000742;28;20041;-76
2022/11/07 09:59:44;;;;;;;29.60;4.03;;;14.40;99.90;;;;;;5034251;28;20053;-75
2022/11/07 10:02:18;;;;;;;22.05;3.63;;;14.40;99.90;;;;;;5016049;28;20244;-75
2022/11/07 10:04:49;;;;;;;27.33;3.80;;;14.40;99.90;;;;;;5034512;28;20045;-74
2022/11/07 10:07:28;;;;;;;26.23;3.80;;;14.40;99.90;;;;;;5034631;28;20045;-75
2022/11/07 10:10:05;;;;;;;24.23;3.65;;;14.40;99.90;;;;;;5033452;28;20354;-75
2022/11/07 10:12:51;;;;;;;27.48;3.95;;;14.30;99.90;;;;;;5017160;28;20050;-75
2022/11/07 10:15:21;;;;;;;32.72;3.92;;;14.30;99.90;;;;;;5032933;28;20050;-75
2022/11/07 10:18:14;;;;;;;28.42;3.72;;;14.30;99.90;;;;;;5034461;28;20048;-74
2022/11/07 10:21:05;;;;;;;22.30;3.80;;;14.30;99.90;;;;;;5016878;28;20380;-75
2022/11/07 10:24:25;;;;;;;29.85;4.22;;;14.20;99.90;;;;;;5018727;28;20042;-75
2022/11/07 10:26:56;;;;;;;38.63;4.03;;;14.20;99.90;;;;;;5034175;28;20045;-75
2022/11/07 10:29:40;;;;;;;42.95;4.93;;;14.20;99.90;;;;;;5032902;28;20049;-75
2022/11/07 10:32:18;;;;;;;30.45;5.05;;;14.20;99.90;;;;;;5037548;28;20045;-75
2022/11/07 10:35:00;;;;;;;38.35;5.25;;;14.20;99.90;;;;;;5020508;28;20049;-74
2022/11/07 10:37:27;;;;;;;38.83;5.35;;;14.30;99.90;;;;;;5019095;28;20049;-75
2022/11/07 10:39:55;;;;;;;50.10;5.90;;;14.30;99.90;;;;;;5037558;28;20507;-75
2022/11/07 10:42:29;;;;;;;33.22;5.05;;;14.30;99.90;;;;;;5019245;28;20376;-75
2022/11/07 10:44:58;;;;;;;45.30;5.40;;;14.40;99.90;;;;;;5020170;28;20344;-75
2022/11/07 10:47:26;;;;;;;39.22;5.28;;;14.40;99.90;;;;;;5037343;28;20045;-75
2022/11/07 10:49:58;;;;;;;41.15;5.13;;;14.40;99.90;;;;;;5018620;28;20045;-76
2022/11/07 10:52:27;;;;;;;36.10;5.45;;;14.50;99.90;;;;;;5037096;28;20045;-75
2022/11/07 10:55:14;;;;;;;34.53;5.13;;;14.40;99.90;;;;;;5037485;28;20341;-75
2022/11/07 10:57:43;;;;;;;33.58;4.70;;;14.40;99.90;;;;;;5037245;28;20133;-75
2022/11/07 11:00:26;;;;;;;44.47;4.85;;;14.50;99.90;;;;;;5003276;28;20049;-75
2022/11/07 11:02:56;;;;;;;36.40;4.82;;;14.50;99.90;;;;;;5035520;28;20053;-75
2022/11/07 11:05:44;;;;;;;33.55;5.03;;;14.50;99.90;;;;;;5003780;28;20049;-76
2022/11/07 11:08:15;;;;;;;31.92;4.93;;;14.60;99.90;;;;;;5036875;28;20046;-75
2022/11/07 11:10:44;;;;;;;33.13;4.20;;;14.70;99.90;;;;;;5018567;28;20053;-75
2022/11/07 11:13:32;;;;;;;29.23;4.18;;;14.70;99.90;;;;;;5019240;28;20383;-75
2022/11/07 11:16:08;;;;;;;;;;;14.70;99.90;;;;;;5036152;28;20350;-75
2022/11/07 11:18:36;;;;;;;23.98;3.20;;;14.70;99.90;;;;;;5003489;28;19932;-75
2022/11/07 11:21:05;;;;;;;19.08;3.10;;;14.70;99.90;;;;;;5019233;28;20052;-74
2022/11/07 11:23:40;;;;;;;16.55;3.17;;;14.70;99.90;;;;;;5017915;28;20053;-76
2022/11/07 11:26:22;;;;;;;22.13;2.95;;;14.70;99.90;;;;;;5036917;28;20045;-76
2022/11/07 11:29:07;;;;;;;25.85;3.67;;;14.70;99.90;;;;;;5002002;28;20037;-76
2022/11/07 11:31:41;;;;;;;25.38;3.97;;;14.70;99.90;;;;;;5019096;28;20057;-75
2022/11/07 11:34:20;;;;;;;30.50;4.00;;;14.80;99.90;;;;;;5036972;28;20049;-74
2022/11/07 11:37:00;;;;;;;28.88;4.13;;;14.80;99.90;;;;;;5035529;28;20063;-75
2022/11/07 11:40:04;;;;;;;20.30;3.67;;;14.90;99.90;;;;;;5018665;28;20053;-75
2022/11/07 11:42:36;;;;;;;27.95;4.07;;;14.80;99.90;;;;;;5035163;28;20041;-75
2022/11/07 11:45:31;;;;;;;26.25;3.70;;;14.90;99.90;;;;;;5018956;28;20045;-75
2022/11/07 11:48:17;;;;;;;24.73;3.58;;;14.90;99.90;;;;;;5021946;28;20056;-74
2022/11/07 11:50:53;;;;;;;29.92;3.95;;;15.00;99.90;;;;;;5017482;28;20049;-75
2022/11/07 11:53:21;;;;;;;30.52;4.00;;;15.00;99.90;;;;;;5036161;28;20048;-75
2022/11/07 11:55:59;;;;;;;23.20;3.38;;;15.10;99.90;;;;;;5017659;28;20037;-74
2022/11/07 11:58:46;;;;;;;27.20;4.05;;;15.20;99.90;;;;;;5035885;28;20041;-75
2022/11/07 12:01:34;;;;;;;25.90;4.15;;;15.20;99.90;;;;;;5017996;28;20049;-75
2022/11/07 12:04:35;;;;;;;29.70;4.18;;;15.10;99.90;;;;;;5034797;28;20121;-76
2022/11/07 12:07:30;;;;;;;27.45;4.13;;;15.10;99.90;;;;;;5035247;28;20041;-74
2022/11/07 12:10:07;;;;;;;32.78;4.53;;;15.00;99.90;;;;;;5034968;28;20042;-74
2022/11/07 12:13:11;;;;;;;26.75;4.30;;;15.00;99.90;;;;;;5001708;28;20064;-74
2022/11/07 12:15:46;;;;;;;33.45;4.85;;;14.90;99.90;;;;;;5000952;28;20050;-73
2022/11/07 12:18:30;;;;;;;27.05;4.57;;;15.00;99.90;;;;;;5035333;28;20060;-74
2022/11/07 12:21:32;;;;;;;26.65;3.78;;;15.10;99.90;;;;;;5017843;28;20037;-73
2022/11/07 12:24:21;;;;;;;29.92;4.57;;;16.80;99.90;;;;;;5017093;28;20376;-74
2022/11/07 12:27:07;;;;;;;28.10;4.15;;;15.10;99.90;;;;;;5035234;28;20049;-73
2022/11/07 12:30:05;;;;;;;26.75;4.20;;;15.10;99.90;;;;;;5001437;28;20053;-74
2022/11/07 12:33:02;;;;;;;27.05;4.25;;;15.10;99.90;;;;;;5035457;28;20060;-73
2022/11/07 12:35:29;;;;;;;32.80;4.45;;;15.10;99.90;;;;;;5033945;28;20068;-73
2022/11/07 12:38:28;;;;;;;29.13;4.55;;;15.20;99.90;;;;;;5034951;28;20061;-74
2022/11/07 12:41:23;;;;;;;34.63;5.28;;;15.20;99.90;;;;;;5034775;28;20547;-74
2022/11/07 12:44:06;;;;;;;32.38;4.53;;;15.20;99.90;;;;;;5016342;28;20045;-73
2022/11/07 12:46:43;;;;;;;29.23;4.30;;;15.20;99.90;;;;;;5034582;28;20046;-71
2022/11/07 12:49:16;;;;;;;28.15;4.28;;;15.30;99.90;;;;;;5033632;28;20045;-73
2022/11/07 12:52:08;;;;;;;30.48;4.60;;;15.30;99.90;;;;;;5034745;28;20380;-73
2022/11/07 12:55:11;;;;;;;32.78;4.25;;;15.30;99.90;;;;;;5033927;28;20060;-72
2022/11/07 12:57:41;;;;;;;29.48;3.95;;;15.40;99.90;;;;;;5034649;28;20060;-73
2022/11/07 13:00:23;;;;;;;25.45;4.18;;;15.50;99.90;;;;;;5034346;28;20054;-74
2022/11/07 13:03:30;;;;;;;26.00;4.50;;;15.60;99.90;;;;;;5033408;28;20045;-73
2022/11/07 13:06:14;;;;;;;29.23;4.55;;;15.80;99.90;;;;;;5034669;28;20369;-73
2022/11/07 13:08:58;;;;;;;25.38;4.05;;;16.00;99.90;;;;;;5016621;28;20056;-73
2022/11/07 13:11:36;;;;;;;23.50;4.20;;;16.10;99.90;;;;;;5017338;28;20048;-74
2022/11/07 13:14:15;;;;;;;33.17;5.03;;;16.20;99.90;;;;;;5034147;28;20065;-74
2022/11/07 13:17:14;;;;;;;26.48;4.78;;;16.20;99.90;;;;;;5033353;28;20133;-74
2022/11/07 13:19:44;;;;;;;34.60;5.45;;;16.20;99.90;;;;;;4999403;28;20041;-73
2022/11/07 13:22:15;;;;;;;30.52;4.10;;;16.20;99.90;;;;;;5033085;28;20683;-74
2022/11/07 13:25:04;;;;;;;26.92;4.30;;;16.20;99.90;;;;;;5017141;28;20041;-74
2022/11/07 13:28:00;;;;;;;21.88;4.05;;;16.10;99.90;;;;;;5016943;28;20048;-75
2022/11/07 13:30:34;;;;;;;26.38;4.50;;;16.20;99.90;;;;;;5015655;28;20581;-74